Time;durP1;ratioP1;P1;durP2;ratioP2;P2;SDS_P1;SDS_P2;PMS_P1;PMS_P2;Temp;Humidity;BMP_temperature;BMP_pressure;BME280_temperature;BME280_humidity;BME280_pressure;Samples;Min_cycle;Max_cycle;Signal;HPM_P1;HPM_P2
2021/04/07 08:26:02;;;;;;;64.30;29.30;;;;;;;;;;5071481;28;20609;-47
2021/04/07 08:28:28;;;;;;;69.53;25.98;;;;;;;;;;5071712;28;20182;-47
2021/04/07 08:30:55;;;;;;;64.32;27.85;;;;;;;;;;5071280;28;20175;-52
2021/04/07 08:33:21;;;;;;;29.85;14.10;;;;;;;;;;5071489;28;20171;-49
2021/04/07 08:35:51;;;;;;;43.92;18.15;;;;;;;;;;5070097;28;20186;-52
2021/04/07 08:38:17;;;;;;;34.60;16.75;;;;;;;;;;5071595;28;20617;-52
2021/04/07 08:40:44;;;;;;;34.33;16.15;;;;;;;;;;5070973;28;20178;-54
2021/04/07 08:43:14;;;;;;;37.70;15.45;;;;;;;;;;5071905;28;20564;-49
2021/04/07 08:45:46;;;;;;;32.38;13.98;;;;;;;;;;5070735;28;20554;-53
2021/04/07 08:48:19;;;;;;;30.02;12.57;;;;;;;;;;5071023;28;20258;-53
2021/04/07 08:50:46;;;;;;;27.50;12.15;;;;;;;;;;5070215;28;20175;-50
2021/04/07 08:53:13;;;;;;;21.42;11.43;;;;;;;;;;5070531;28;20163;-50
2021/04/07 08:55:41;;;;;;;25.23;11.88;;;;;;;;;;5069490;28;20183;-55
2021/04/07 08:58:09;;;;;;;19.02;9.43;;;;;;;;;;5070677;28;20597;-49
2021/04/07 09:00:36;;;;;;;23.85;10.05;;;;;;;;;;5070217;28;20175;-51
2021/04/07 09:03:14;;;;;;;21.38;8.90;;;;;;;;;;5071402;28;20217;-49
2021/04/07 09:05:41;;;;;;;18.02;8.40;;;;;;;;;;5068315;28;20201;-50
2021/04/07 09:08:10;;;;;;;18.42;8.32;;;;;;;;;;5071240;28;20565;-50
2021/04/07 09:10:41;;;;;;;19.85;8.30;;;;;;;;;;5070308;28;20578;-49
2021/04/07 09:13:11;;;;;;;18.25;7.93;;;;;;;;;;5071006;28;20564;-52
2021/04/07 09:15:49;;;;;;;18.27;7.88;;;;;;;;;;5069896;28;20616;-51
2021/04/07 09:18:16;;;;;;;15.00;7.43;;;;;;;;;;5070824;28;20526;-49
2021/04/07 09:20:47;;;;;;;14.00;7.40;;;;;;;;;;5069985;28;20182;-47
2021/04/07 09:25:12;;;;;;;13.77;6.40;;;;;;;;;;5117410;27;20481;-50
2021/04/07 09:27:38;;;;;;;13.77;6.00;;;;;;;;;;5105804;28;20173;-46
2021/04/07 09:30:05;;;;;;;13.07;6.28;;;;;;;;;;5121814;28;20172;-49
2021/04/07 09:32:35;;;;;;;14.07;5.68;;;;;;;;;;5113877;28;20802;-48
2021/04/07 09:35:03;;;;;;;14.20;5.25;;;;;;;;;;5110796;28;20181;-49
2021/04/07 09:37:35;;;;;;;9.48;5.25;;;;;;;;;;5111470;28;20184;-48
2021/04/07 09:40:01;;;;;;;10.57;4.88;;;;;;;;;;5111557;28;20196;-49
2021/04/07 09:42:27;;;;;;;9.55;4.63;;;;;;;;;;5111496;28;20199;-49
2021/04/07 09:44:53;;;;;;;8.43;4.95;;;;;;;;;;5111102;28;20220;-47
2021/04/07 09:47:28;;;;;;;11.32;5.10;;;;;;;;;;5111455;28;20572;-48
2021/04/07 09:49:54;;;;;;;10.57;4.63;;;;;;;;;;5108944;28;20169;-49
2021/04/07 09:52:20;;;;;;;10.10;4.35;;;;;;;;;;5110340;28;20241;-48
2021/04/07 09:54:46;;;;;;;9.82;4.70;;;;;;;;;;5111199;28;20260;-48
2021/04/07 09:57:12;;;;;;;6.68;4.20;;;;;;;;;;5110907;28;20328;-49
2021/04/07 09:59:40;;;;;;;8.48;3.85;;;;;;;;;;5111454;28;20220;-48
2021/04/07 10:02:08;;;;;;;7.93;3.92;;;;;;;;;;5111228;28;20165;-51
2021/04/07 10:04:35;;;;;;;8.82;3.65;;;;;;;;;;5094851;28;20201;-49
2021/04/07 10:07:12;;;;;;;8.45;3.92;;;;;;;;;;5111352;28;20185;-48
2021/04/07 10:09:38;;;;;;;6.68;3.42;;;;;;;;;;5099956;28;20220;-47
2021/04/07 10:12:06;;;;;;;5.47;3.33;;;;;;;;;;5100336;28;20213;-47
2021/04/07 10:14:32;;;;;;;6.82;3.53;;;;;;;;;;5099688;28;20579;-48
2021/04/07 10:16:58;;;;;;;9.27;3.67;;;;;;;;;;5105959;28;20571;-49
2021/04/07 10:19:30;;;;;;;7.57;3.45;;;;;;;;;;5111426;28;20178;-47
2021/04/07 10:22:00;;;;;;;9.77;3.70;;;;;;;;;;5111159;28;20173;-45
2021/04/07 10:24:26;;;;;;;7.75;3.55;;;;;;;;;;5078603;28;20202;-48
2021/04/07 10:26:52;;;;;;;5.82;3.30;;;;;;;;;;5087480;28;20565;-49
2021/04/07 10:29:23;;;;;;;7.40;3.42;;;;;;;;;;5090667;28;20174;-49
2021/04/07 10:31:55;;;;;;;7.90;3.70;;;;;;;;;;5090655;28;20177;-49
2021/04/07 10:34:29;;;;;;;6.72;2.95;;;;;;;;;;5075795;28;20174;-51
2021/04/07 10:36:55;;;;;;;8.35;3.67;;;;;;;;;;5073738;28;20433;-51
2021/04/07 10:39:21;;;;;;;19.88;3.38;;;;;;;;;;5076186;28;20186;-51
2021/04/07 10:41:48;;;;;;;5.78;2.30;;;;;;;;;;5076831;28;20186;-52
2021/04/07 10:44:23;;;;;;;5.55;1.77;;;;;;;;;;5076722;28;20208;-54
2021/04/07 10:46:50;;;;;;;9.15;2.60;;;;;;;;;;5076145;28;20228;-49
2021/04/07 10:49:16;;;;;;;5.00;2.45;;;;;;;;;;5070563;28;20185;-48
2021/04/07 10:51:43;;;;;;;6.65;2.30;;;;;;;;;;5076509;28;20181;-48
2021/04/07 10:54:10;;;;;;;4.88;2.50;;;;;;;;;;5076326;28;20190;-51
2021/04/07 10:56:36;;;;;;;6.60;2.60;;;;;;;;;;5076745;28;20847;-49
2021/04/07 10:59:05;;;;;;;5.63;3.08;;;;;;;;;;5076800;28;20553;-47
2021/04/07 11:01:32;;;;;;;8.93;4.13;;;;;;;;;;5076292;28;20258;-48
2021/04/07 11:03:58;;;;;;;10.00;4.60;;;;;;;;;;5076501;28;20272;-47
2021/04/07 11:06:24;;;;;;;9.10;4.88;;;;;;;;;;5073981;28;20179;-48
2021/04/07 11:08:51;;;;;;;11.52;6.20;;;;;;;;;;5075950;28;20176;-47
2021/04/07 11:11:21;;;;;;;24.05;10.32;;;;;;;;;;5070582;28;20175;-48
2021/04/07 11:13:48;;;;;;;17.52;9.52;;;;;;;;;;5076528;28;20189;-48
2021/04/07 11:16:14;;;;;;;25.58;11.93;;;;;;;;;;5075579;28;20257;-48
2021/04/07 11:18:41;;;;;;;21.35;10.35;;;;;;;;;;5075901;28;20186;-48
2021/04/07 11:21:07;;;;;;;18.42;9.27;;;;;;;;;;5075960;28;20834;-48
2021/04/07 11:23:35;;;;;;;23.23;12.23;;;;;;;;;;5083407;28;20626;-48
2021/04/07 11:26:01;;;;;;;28.80;12.73;;;;;;;;;;5096096;28;20231;-49
2021/04/07 11:28:28;;;;;;;25.10;11.70;;;;;;;;;;5094646;28;20579;-49
2021/04/07 11:38:53;;;;;;;23.95;12.27;;;;;;;;;;5096449;28;20177;-48
2021/04/07 11:46:30;;;;;;;42.65;19.67;;;;;;;;;;5089872;28;20186;-48
2021/04/07 11:48:56;;;;;;;40.90;21.45;;;;;;;;;;5075865;28;20171;-47
2021/04/07 11:51:22;;;;;;;48.90;22.48;;;;;;;;;;5087824;28;20249;-48
2021/04/07 11:53:48;;;;;;;59.75;25.35;;;;;;;;;;5096025;28;20162;-47
2021/04/07 11:56:15;;;;;;;53.20;25.13;;;;;;;;;;5094892;28;20178;-48
2021/04/07 11:58:41;;;;;;;64.80;28.95;;;;;;;;;;5095693;28;20265;-48
2021/04/07 12:01:07;;;;;;;37.95;17.83;;;;;;;;;;5095607;28;20269;-48
2021/04/07 12:03:34;;;;;;;22.45;11.10;;;;;;;;;;5095560;28;20216;-49
2021/04/07 12:06:00;;;;;;;26.95;12.70;;;;;;;;;;5095175;28;20174;-47
2021/04/07 12:08:26;;;;;;;25.50;11.40;;;;;;;;;;5085918;28;20201;-48
2021/04/07 12:10:52;;;;;;;19.17;9.25;;;;;;;;;;5095470;28;20189;-47
2021/04/07 12:13:18;;;;;;;20.80;9.60;;;;;;;;;;5093117;28;20572;-48
2021/04/07 12:15:44;;;;;;;19.52;10.27;;;;;;;;;;5095011;28;20182;-47
2021/04/07 12:18:10;;;;;;;21.80;10.80;;;;;;;;;;5095524;28;20472;-48
2021/04/07 12:20:37;;;;;;;21.85;11.63;;;;;;;;;;5077003;28;20190;-48
2021/04/07 12:23:03;;;;;;;22.30;11.38;;;;;;;;;;5090132;28;20343;-47
2021/04/07 12:25:30;;;;;;;22.05;12.02;;;;;;;;;;5093923;28;20223;-48
2021/04/07 12:27:56;;;;;;;25.08;12.02;;;;;;;;;;5095051;28;20177;-47
2021/04/07 12:30:23;;;;;;;24.73;12.43;;;;;;;;;;5078646;28;20637;-48
2021/04/07 12:32:50;;;;;;;20.90;11.68;;;;;;;;;;5086853;28;20170;-48
2021/04/07 12:35:16;;;;;;;24.33;12.07;;;;;;;;;;5094094;28;20178;-47
2021/04/07 12:37:44;;;;;;;32.08;15.48;;;;;;;;;;5094762;28;20166;-47
2021/04/07 12:40:11;;;;;;;33.70;15.68;;;;;;;;;;5094814;28;20791;-45
2021/04/07 12:42:37;;;;;;;30.98;15.07;;;;;;;;;;5094903;28;20544;-47
2021/04/07 12:45:04;;;;;;;27.85;15.40;;;;;;;;;;5081809;28;20472;-44
2021/04/07 12:47:31;;;;;;;26.65;14.07;;;;;;;;;;5080088;28;20188;-46
2021/04/07 12:49:57;;;;;;;25.40;13.32;;;;;;;;;;5077731;28;20222;-45
2021/04/07 12:52:23;;;;;;;22.65;12.63;;;;;;;;;;5094796;28;20186;-46
2021/04/07 12:58:20;;;;;;;23.40;12.25;;;;;;;;;;5127467;27;20486;-44
2021/04/07 13:00:46;;;;;;;20.48;11.27;;;;;;;;;;5111727;28;20588;-45
2021/04/07 13:03:14;;;;;;;25.08;11.68;;;;;;;;;;5100168;28;20594;-45
2021/04/07 13:05:40;;;;;;;17.02;10.15;;;;;;;;;;5101471;28;20227;-45
2021/04/07 13:08:06;;;;;;;20.55;10.10;;;;;;;;;;5091990;28;20190;-45
2021/04/07 13:10:37;;;;;;;20.42;10.07;;;;;;;;;;5091599;28;20178;-44
2021/04/07 13:13:03;;;;;;;19.10;9.77;;;;;;;;;;5091559;28;20205;-44
2021/04/07 13:15:29;;;;;;;18.83;9.27;;;;;;;;;;5090002;28;20188;-44
2021/04/07 13:17:55;;;;;;;18.10;8.70;;;;;;;;;;5083248;28;20206;-42
2021/04/07 13:20:23;;;;;;;16.35;8.82;;;;;;;;;;5084192;28;20178;-45
2021/04/07 13:22:49;;;;;;;14.82;8.48;;;;;;;;;;5075827;28;20170;-48
2021/04/07 13:25:16;;;;;;;17.33;8.20;;;;;;;;;;5090528;28;20173;-46
2021/04/07 13:27:42;;;;;;;15.15;8.02;;;;;;;;;;5091353;28;20868;-46
2021/04/07 13:30:09;;;;;;;18.67;8.85;;;;;;;;;;5091278;28;20579;-46
2021/04/07 13:32:37;;;;;;;13.32;6.43;;;;;;;;;;5089062;28;20162;-46
2021/04/07 13:35:10;;;;;;;13.23;7.35;;;;;;;;;;5078704;28;20409;-48
2021/04/07 13:42:54;;;;;;;11.48;6.15;;;;;;;;;;5090733;28;20264;-47
2021/04/07 13:45:21;;;;;;;16.58;6.43;;;;;;;;;;5090728;28;20227;-45
2021/04/07 13:47:48;;;;;;;13.80;5.47;;;;;;;;;;5091088;28;20176;-45
2021/04/07 13:50:15;;;;;;;9.73;5.75;;;;;;;;;;5090786;28;20181;-47
2021/04/07 13:52:41;;;;;;;10.10;4.53;;;;;;;;;;5090676;28;20166;-46
2021/04/07 13:55:08;;;;;;;12.85;5.82;;;;;;;;;;5090245;28;20192;-45
2021/04/07 13:57:34;;;;;;;10.60;5.40;;;;;;;;;;5104007;28;20201;-44
2021/04/07 14:00:00;;;;;;;26.20;11.65;;;;;;;;;;5110784;28;20182;-46
2021/04/07 14:02:37;;;;;;;202.93;80.55;;;;;;;;;;5102510;28;20197;-46
2021/04/07 14:05:03;;;;;;;294.65;107.03;;;;;;;;;;5110255;28;20181;-46
2021/04/07 14:07:30;;;;;;;353.23;147.90;;;;;;;;;;5109639;28;20185;-46
2021/04/07 14:09:56;;;;;;;391.67;159.20;;;;;;;;;;5097178;28;20174;-46
2021/04/07 14:12:30;;;;;;;422.60;188.48;;;;;;;;;;5096501;28;20173;-46
2021/04/07 14:14:57;;;;;;;467.70;218.93;;;;;;;;;;5095433;28;20181;-43
2021/04/07 14:17:23;;;;;;;295.88;118.45;;;;;;;;;;5076076;28;20209;-44
2021/04/07 14:19:49;;;;;;;278.42;113.65;;;;;;;;;;5076015;28;20264;-50
2021/04/07 14:22:15;;;;;;;279.70;116.10;;;;;;;;;;5084419;28;20271;-45
2021/04/07 14:24:41;;;;;;;246.63;102.93;;;;;;;;;;5096319;28;20189;-44
2021/04/07 14:27:07;;;;;;;216.85;92.18;;;;;;;;;;5096676;28;20192;-46
2021/04/07 14:29:34;;;;;;;191.25;81.45;;;;;;;;;;5096718;28;20213;-46
2021/04/07 14:32:01;;;;;;;164.50;72.38;;;;;;;;;;5092088;28;20598;-47
2021/04/07 14:34:27;;;;;;;165.57;70.97;;;;;;;;;;5093728;28;20324;-46
2021/04/07 14:36:53;;;;;;;139.63;59.53;;;;;;;;;;5083535;28;20722;-48
2021/04/07 14:39:19;;;;;;;127.38;56.38;;;;;;;;;;5078167;28;20182;-51
2021/04/07 14:41:45;;;;;;;108.90;50.53;;;;;;;;;;5092003;28;20284;-48
2021/04/07 14:44:12;;;;;;;123.00;50.03;;;;;;;;;;5093928;28;20523;-48
2021/04/07 14:46:38;;;;;;;98.82;45.45;;;;;;;;;;5085545;28;20170;-49
2021/04/07 14:49:04;;;;;;;91.95;41.42;;;;;;;;;;5094142;28;20245;-47
2021/04/07 14:51:32;;;;;;;88.82;38.72;;;;;;;;;;5095513;28;20552;-47
2021/04/07 14:54:06;;;;;;;76.30;36.45;;;;;;;;;;5096088;28;20184;-47
2021/04/07 14:56:32;;;;;;;68.18;32.72;;;;;;;;;;5095684;28;20475;-48
2021/04/07 14:58:58;;;;;;;64.85;29.98;;;;;;;;;;5096350;28;20186;-48
2021/04/07 15:01:24;;;;;;;54.72;27.05;;;;;;;;;;5096327;28;20258;-48
2021/04/07 15:03:50;;;;;;;51.17;23.95;;;;;;;;;;5096189;28;20166;-47
2021/04/07 15:06:16;;;;;;;42.97;22.40;;;;;;;;;;5075723;28;20184;-46
2021/04/07 15:08:43;;;;;;;46.25;21.67;;;;;;;;;;5095353;28;20188;-49
2021/04/07 15:11:09;;;;;;;47.15;22.15;;;;;;;;;;5095719;28;20184;-47
2021/04/07 15:13:35;;;;;;;41.05;19.65;;;;;;;;;;5095422;28;20173;-48
2021/04/07 15:16:01;;;;;;;35.50;19.08;;;;;;;;;;5085215;28;20269;-47
2021/04/07 15:18:27;;;;;;;30.95;16.70;;;;;;;;;;5094968;28;20509;-48
2021/04/07 15:20:53;;;;;;;33.40;17.30;;;;;;;;;;5093320;28;20178;-48
2021/04/07 15:23:20;;;;;;;33.80;16.80;;;;;;;;;;5095577;28;20170;-49
2021/04/07 15:26:02;;;;;;;34.75;17.58;;;;;;;;;;5095633;28;20540;-51
2021/04/07 15:28:35;;;;;;;33.13;16.05;;;;;;;;;;5095539;28;20520;-49
2021/04/07 15:31:28;;;;;;;30.73;16.75;;;;;;;;;;5096149;28;20253;-49
2021/04/07 15:33:55;;;;;;;30.27;15.48;;;;;;;;;;5091428;28;20550;-49
2021/04/07 15:36:22;;;;;;;29.27;14.18;;;;;;;;;;5098498;28;20200;-51
2021/04/07 15:38:48;;;;;;;25.10;13.85;;;;;;;;;;5094635;28;20440;-57
2021/04/07 15:41:15;;;;;;;22.23;13.27;;;;;;;;;;5095394;28;20552;-49
2021/04/07 15:43:41;;;;;;;28.13;13.63;;;;;;;;;;5095145;28;20185;-51
2021/04/07 15:46:07;;;;;;;24.50;12.82;;;;;;;;;;5094639;28;20633;-54
2021/04/07 15:48:33;;;;;;;21.70;12.43;;;;;;;;;;5097364;28;20182;-50
2021/04/07 15:51:00;;;;;;;26.00;12.88;;;;;;;;;;5094953;28;20202;-51
2021/04/07 15:53:29;;;;;;;20.50;11.32;;;;;;;;;;5094784;28;20182;-49
2021/04/07 15:55:56;;;;;;;23.42;12.23;;;;;;;;;;5094800;28;20170;-49
2021/04/07 15:58:22;;;;;;;25.02;13.35;;;;;;;;;;5097217;28;20208;-49
2021/04/07 16:00:49;;;;;;;28.33;13.57;;;;;;;;;;5093866;28;20533;-49
2021/04/07 16:03:15;;;;;;;23.13;11.10;;;;;;;;;;5095097;28;20459;-50
2021/04/07 16:05:41;;;;;;;16.67;9.02;;;;;;;;;;5095574;28;20276;-49
2021/04/07 16:08:07;;;;;;;16.73;8.40;;;;;;;;;;5097618;28;20244;-49
2021/04/07 16:10:34;;;;;;;16.90;8.82;;;;;;;;;;5097442;28;20169;-49
2021/04/07 16:13:00;;;;;;;19.40;9.55;;;;;;;;;;5097562;28;20178;-49
2021/04/07 16:15:26;;;;;;;14.32;8.80;;;;;;;;;;5097250;28;20244;-49
2021/04/07 16:17:56;;;;;;;19.50;9.57;;;;;;;;;;5097330;28;20196;-49
2021/04/07 16:20:25;;;;;;;17.70;8.32;;;;;;;;;;5097473;28;20414;-49
2021/04/07 16:22:51;;;;;;;14.70;8.77;;;;;;;;;;5097428;28;20186;-49
2021/04/07 16:25:17;;;;;;;21.27;8.50;;;;;;;;;;5094992;28;20229;-49
2021/04/07 16:27:44;;;;;;;14.15;8.15;;;;;;;;;;5094748;28;20207;-49
2021/04/07 16:30:13;;;;;;;16.23;8.48;;;;;;;;;;5094262;28;20190;-49
2021/04/07 16:32:39;;;;;;;13.73;7.88;;;;;;;;;;5094948;28;20194;-49
2021/04/07 16:35:06;;;;;;;14.45;8.38;;;;;;;;;;5094579;28;20212;-49
2021/04/07 16:37:32;;;;;;;15.05;8.23;;;;;;;;;;5094052;28;20242;-49
2021/04/07 16:39:58;;;;;;;15.07;7.93;;;;;;;;;;5094188;28;20177;-49
2021/04/07 16:42:24;;;;;;;12.95;7.78;;;;;;;;;;5094780;28;20611;-49
2021/04/07 16:44:50;;;;;;;14.15;6.85;;;;;;;;;;5094014;28;20617;-49
2021/04/07 16:47:16;;;;;;;14.98;7.57;;;;;;;;;;5094531;28;20307;-49
2021/04/07 16:49:42;;;;;;;13.60;6.90;;;;;;;;;;5094610;28;20178;-49
2021/04/07 16:52:08;;;;;;;13.95;6.90;;;;;;;;;;5093718;28;20174;-49
2021/04/07 16:54:35;;;;;;;13.95;6.43;;;;;;;;;;5094182;28;20193;-49
2021/04/07 16:57:01;;;;;;;11.07;6.70;;;;;;;;;;5094042;28;20219;-49
2021/04/07 16:59:27;;;;;;;10.02;6.05;;;;;;;;;;5094075;28;20177;-49
2021/04/07 17:01:53;;;;;;;10.93;6.03;;;;;;;;;;5092062;28;20181;-49
2021/04/07 17:04:19;;;;;;;11.35;5.68;;;;;;;;;;5081438;28;20253;-49
2021/04/07 17:06:45;;;;;;;9.75;6.20;;;;;;;;;;5094107;28;20227;-49
2021/04/07 17:09:11;;;;;;;10.70;5.85;;;;;;;;;;5092338;28;20189;-49
2021/04/07 17:11:37;;;;;;;11.50;6.35;;;;;;;;;;5084906;28;20236;-49
2021/04/07 17:14:03;;;;;;;7.47;5.10;;;;;;;;;;5094024;28;20189;-50
2021/04/07 17:16:29;;;;;;;9.95;6.40;;;;;;;;;;5094150;28;20189;-49
2021/04/07 17:18:56;;;;;;;11.05;4.88;;;;;;;;;;5093541;28;20185;-49
2021/04/07 17:21:22;;;;;;;7.50;4.85;;;;;;;;;;5093880;28;20580;-49
2021/04/07 17:23:50;;;;;;;9.07;5.43;;;;;;;;;;5094333;28;20249;-49
2021/04/07 17:26:16;;;;;;;6.95;4.80;;;;;;;;;;5093867;28;20184;-49
2021/04/07 17:28:42;;;;;;;7.22;4.85;;;;;;;;;;5076035;28;20166;-49
2021/04/07 17:31:08;;;;;;;7.57;4.68;;;;;;;;;;5086596;28;20174;-49
2021/04/07 17:33:34;;;;;;;8.02;5.07;;;;;;;;;;5074419;28;20186;-49
2021/04/07 17:36:01;;;;;;;7.70;4.28;;;;;;;;;;5090993;28;20174;-49
2021/04/07 17:38:28;;;;;;;7.28;4.07;;;;;;;;;;5093345;28;20557;-49
2021/04/07 17:40:55;;;;;;;6.78;4.18;;;;;;;;;;5093523;28;20204;-52
2021/04/07 17:43:22;;;;;;;7.85;4.05;;;;;;;;;;5094453;28;20177;-49
2021/04/07 17:45:48;;;;;;;7.00;4.00;;;;;;;;;;5097770;28;20828;-49
2021/04/07 17:48:15;;;;;;;8.05;4.30;;;;;;;;;;5098081;28;20166;-49
2021/04/07 17:50:41;;;;;;;7.93;4.55;;;;;;;;;;5096701;28;20764;-49
2021/04/07 17:53:07;;;;;;;6.43;4.40;;;;;;;;;;5098040;28;20235;-50
2021/04/07 17:55:33;;;;;;;6.30;3.72;;;;;;;;;;5097499;28;20174;-49
2021/04/07 17:57:59;;;;;;;4.75;3.42;;;;;;;;;;5096981;28;20285;-49
2021/04/07 18:00:25;;;;;;;8.00;3.67;;;;;;;;;;5083696;28;20206;-49
2021/04/07 18:02:52;;;;;;;5.28;3.60;;;;;;;;;;5077165;28;20249;-49
2021/04/07 18:05:18;;;;;;;5.57;3.90;;;;;;;;;;5085515;28;20188;-49
2021/04/07 18:07:45;;;;;;;6.00;3.60;;;;;;;;;;5097293;28;20454;-49
2021/04/07 18:10:12;;;;;;;6.32;3.85;;;;;;;;;;5092841;28;20189;-49
2021/04/07 18:12:38;;;;;;;5.70;3.60;;;;;;;;;;5095135;28;20194;-49
2021/04/07 18:15:06;;;;;;;6.85;4.03;;;;;;;;;;5096266;28;20335;-49
2021/04/07 18:17:32;;;;;;;4.90;3.20;;;;;;;;;;5096475;28;20596;-49
2021/04/07 18:19:59;;;;;;;5.85;3.50;;;;;;;;;;5087078;28;20533;-50
2021/04/07 18:22:25;;;;;;;5.20;3.25;;;;;;;;;;5083312;28;20178;-48
2021/04/07 18:24:51;;;;;;;5.07;3.58;;;;;;;;;;5093667;28;20204;-49
2021/04/07 18:27:17;;;;;;;6.38;2.90;;;;;;;;;;5086926;28;20197;-49
2021/04/07 18:29:43;;;;;;;5.53;3.22;;;;;;;;;;5082295;28;20177;-49
2021/04/07 18:32:09;;;;;;;5.13;2.90;;;;;;;;;;5086683;28;20436;-49
2021/04/07 18:34:35;;;;;;;4.90;3.10;;;;;;;;;;5092406;28;20679;-49
2021/04/07 18:37:02;;;;;;;6.38;3.25;;;;;;;;;;5097041;28;20209;-49
2021/04/07 18:39:28;;;;;;;4.47;2.90;;;;;;;;;;5092818;28;20451;-48
2021/04/07 18:41:54;;;;;;;3.03;2.38;;;;;;;;;;5094562;28;20182;-48
2021/04/07 18:44:20;;;;;;;5.20;3.20;;;;;;;;;;5096175;28;20205;-48
2021/04/07 18:46:46;;;;;;;2.97;2.42;;;;;;;;;;5096722;28;20192;-49
2021/04/07 18:49:12;;;;;;;5.88;2.83;;;;;;;;;;5076376;28;20463;-49
2021/04/07 18:51:38;;;;;;;4.15;3.03;;;;;;;;;;5076806;28;20182;-48
2021/04/07 18:54:05;;;;;;;3.55;2.75;;;;;;;;;;5091138;28;20205;-49
2021/04/07 18:56:31;;;;;;;2.95;2.30;;;;;;;;;;5081628;28;20482;-49
2021/04/07 18:58:57;;;;;;;4.57;2.70;;;;;;;;;;5096329;28;20174;-49
2021/04/07 19:01:23;;;;;;;3.67;2.13;;;;;;;;;;5084170;28;20252;-48
2021/04/07 19:03:49;;;;;;;7.43;3.05;;;;;;;;;;5096701;28;20558;-49
2021/04/07 19:06:15;;;;;;;3.75;2.42;;;;;;;;;;5095950;28;20162;-49
2021/04/07 19:08:41;;;;;;;4.45;2.58;;;;;;;;;;5095348;28;20180;-48
2021/04/07 19:11:07;;;;;;;5.38;2.47;;;;;;;;;;5090948;28;20548;-48
2021/04/07 19:13:33;;;;;;;5.10;2.60;;;;;;;;;;5095960;28;20170;-48
2021/04/07 19:15:59;;;;;;;5.22;2.33;;;;;;;;;;5095460;28;20169;-48
2021/04/07 19:18:25;;;;;;;3.55;2.35;;;;;;;;;;5087493;28;20596;-49
2021/04/07 19:20:51;;;;;;;5.38;2.38;;;;;;;;;;5095502;28;20174;-48
2021/04/07 19:23:17;;;;;;;3.80;2.42;;;;;;;;;;5096249;28;20239;-49
2021/04/07 19:25:43;;;;;;;3.55;2.28;;;;;;;;;;5095738;28;20276;-48
2021/04/07 19:28:09;;;;;;;3.85;2.17;;;;;;;;;;5087281;28;20182;-48
2021/04/07 19:30:35;;;;;;;3.28;2.38;;;;;;;;;;5094463;28;20238;-48
2021/04/07 19:33:01;;;;;;;3.05;2.10;;;;;;;;;;5096185;28;20501;-48
2021/04/07 19:35:27;;;;;;;4.63;1.80;;;;;;;;;;5095485;28;20264;-48
2021/04/07 19:37:54;;;;;;;4.43;2.30;;;;;;;;;;5095316;28;20208;-50
2021/04/07 19:40:20;;;;;;;2.70;1.92;;;;;;;;;;5095356;28;20184;-49
2021/04/07 19:42:46;;;;;;;2.65;2.20;;;;;;;;;;5095311;28;20278;-48
2021/04/07 19:45:12;;;;;;;2.33;1.75;;;;;;;;;;5094557;28;20188;-49
2021/04/07 19:47:40;;;;;;;2.83;2.05;;;;;;;;;;5095127;28;20242;-48
2021/04/07 19:50:08;;;;;;;2.42;1.83;;;;;;;;;;5095710;28;20408;-49
2021/04/07 19:52:35;;;;;;;3.50;1.70;;;;;;;;;;5095628;28;20170;-48
2021/04/07 19:55:01;;;;;;;1.88;1.35;;;;;;;;;;5095033;28;20235;-48
2021/04/07 19:57:30;;;;;;;1.95;1.50;;;;;;;;;;5074343;28;20213;-48
2021/04/07 19:59:56;;;;;;;2.30;1.70;;;;;;;;;;5095343;28;20541;-48
2021/04/07 20:02:22;;;;;;;3.83;1.67;;;;;;;;;;5095537;28;20247;-48
2021/04/07 20:04:48;;;;;;;2.05;1.50;;;;;;;;;;5075406;28;20496;-48
2021/04/07 20:07:15;;;;;;;3.25;1.90;;;;;;;;;;5093929;28;20209;-48
2021/04/07 20:09:41;;;;;;;2.35;1.80;;;;;;;;;;5095294;28;20221;-48
2021/04/07 20:12:07;;;;;;;4.78;1.58;;;;;;;;;;5094403;28;20447;-48
2021/04/07 20:14:33;;;;;;;1.73;1.40;;;;;;;;;;5094824;28;20496;-48
2021/04/07 20:16:59;;;;;;;1.70;1.55;;;;;;;;;;5086330;28;20468;-48
2021/04/07 20:19:25;;;;;;;2.70;1.60;;;;;;;;;;5074971;28;20163;-48
2021/04/07 20:21:52;;;;;;;1.75;1.40;;;;;;;;;;5087302;28;20177;-48
2021/04/07 20:24:18;;;;;;;1.83;1.27;;;;;;;;;;5094669;28;20230;-49
2021/04/07 20:26:44;;;;;;;3.83;1.50;;;;;;;;;;5091667;28;20177;-48
2021/04/07 20:29:10;;;;;;;2.75;1.38;;;;;;;;;;5082162;28;20178;-48
2021/04/07 20:31:36;;;;;;;1.83;1.50;;;;;;;;;;5075129;28;20174;-48
2021/04/07 20:34:02;;;;;;;1.90;1.50;;;;;;;;;;5091876;28;20568;-48
2021/04/07 20:36:28;;;;;;;3.22;1.25;;;;;;;;;;5088135;28;20201;-48
2021/04/07 20:38:54;;;;;;;1.83;1.63;;;;;;;;;;5094762;28;20639;-48
2021/04/07 20:41:20;;;;;;;2.00;1.50;;;;;;;;;;5094391;28;20176;-48
2021/04/07 20:43:46;;;;;;;1.88;1.23;;;;;;;;;;5094537;28;20180;-48
2021/04/07 20:46:13;;;;;;;1.30;1.20;;;;;;;;;;5092717;28;20184;-48
2021/04/07 20:48:39;;;;;;;1.88;1.27;;;;;;;;;;5074620;28;20174;-48
2021/04/07 20:51:05;;;;;;;1.20;1.10;;;;;;;;;;5074500;28;20211;-48
2021/04/07 20:53:31;;;;;;;1.63;1.20;;;;;;;;;;5091229;28;20185;-48
2021/04/07 20:55:57;;;;;;;1.65;1.30;;;;;;;;;;5093751;28;20182;-49
2021/04/07 20:58:23;;;;;;;2.25;1.40;;;;;;;;;;5093565;28;20270;-48
2021/04/07 21:00:49;;;;;;;1.77;1.45;;;;;;;;;;5077077;28;20181;-49
2021/04/07 21:03:15;;;;;;;1.33;1.20;;;;;;;;;;5094728;28;20201;-48
2021/04/07 21:05:41;;;;;;;1.75;1.40;;;;;;;;;;5090462;28;20185;-48
2021/04/07 21:08:07;;;;;;;1.25;1.10;;;;;;;;;;5094348;28;20674;-48
2021/04/07 21:10:33;;;;;;;1.75;1.13;;;;;;;;;;5094428;28;20174;-49
2021/04/07 21:12:59;;;;;;;1.55;1.17;;;;;;;;;;5094320;28;20174;-48
2021/04/07 21:15:25;;;;;;;1.35;1.13;;;;;;;;;;5093343;28;20220;-48
2021/04/07 21:17:52;;;;;;;1.38;1.20;;;;;;;;;;5076746;28;20480;-48
2021/04/07 21:20:18;;;;;;;1.20;1.10;;;;;;;;;;5098839;28;20172;-49
2021/04/07 21:22:44;;;;;;;1.77;1.20;;;;;;;;;;5098414;28;20571;-48
2021/04/07 21:25:10;;;;;;;1.25;1.15;;;;;;;;;;5097336;28;20214;-48
2021/04/07 21:27:36;;;;;;;1.15;1.05;;;;;;;;;;5098293;28;20556;-48
2021/04/07 21:30:03;;;;;;;1.60;1.20;;;;;;;;;;5084820;28;20178;-48
2021/04/07 21:32:29;;;;;;;1.52;1.27;;;;;;;;;;5067504;28;20295;-48
2021/04/07 21:34:55;;;;;;;1.88;1.33;;;;;;;;;;5092633;28;20174;-48
2021/04/07 21:37:22;;;;;;;1.15;1.02;;;;;;;;;;5084856;28;20280;-47
2021/04/07 21:39:49;;;;;;;1.25;1.15;;;;;;;;;;5079643;28;20261;-48
2021/04/07 21:42:15;;;;;;;2.10;1.00;;;;;;;;;;5097437;28;20235;-48
2021/04/07 21:44:41;;;;;;;1.02;0.93;;;;;;;;;;5097478;28;20174;-48
2021/04/07 21:47:07;;;;;;;1.25;1.00;;;;;;;;;;5097980;28;20182;-48
2021/04/07 21:49:33;;;;;;;1.35;1.10;;;;;;;;;;5097911;28;20181;-48
2021/04/07 21:51:59;;;;;;;1.10;1.00;;;;;;;;;;5097532;28;20256;-49
2021/04/07 21:54:26;;;;;;;0.93;0.93;;;;;;;;;;5088556;28;20186;-48
2021/04/07 21:56:52;;;;;;;1.10;1.00;;;;;;;;;;5097099;28;20259;-48
2021/04/07 21:59:18;;;;;;;1.63;0.80;;;;;;;;;;5080062;28;20167;-48
2021/04/07 22:01:44;;;;;;;1.67;1.10;;;;;;;;;;5097087;28;20198;-48
2021/04/07 22:04:10;;;;;;;0.70;0.70;;;;;;;;;;5079408;28;20629;-48
2021/04/07 22:06:36;;;;;;;0.80;0.80;;;;;;;;;;5097219;28;20184;-48
2021/04/07 22:09:05;;;;;;;1.00;0.85;;;;;;;;;;5097340;28;20215;-48
2021/04/07 22:11:31;;;;;;;0.80;0.80;;;;;;;;;;5097080;28;20600;-48
2021/04/07 22:13:57;;;;;;;2.60;0.93;;;;;;;;;;5093109;28;20182;-49
2021/04/07 22:16:25;;;;;;;1.27;0.95;;;;;;;;;;5079330;28;20166;-48
2021/04/07 22:18:51;;;;;;;1.42;0.82;;;;;;;;;;5097563;28;20721;-48
2021/04/07 22:21:18;;;;;;;1.05;0.90;;;;;;;;;;5097438;28;20162;-49
2021/04/07 22:23:45;;;;;;;1.23;0.88;;;;;;;;;;5096349;28;20261;-48
2021/04/07 22:26:11;;;;;;;0.70;0.70;;;;;;;;;;5096900;28;20265;-48
2021/04/07 22:28:38;;;;;;;2.08;0.80;;;;;;;;;;5096834;28;20181;-48
2021/04/07 22:31:05;;;;;;;1.02;0.82;;;;;;;;;;5095776;28;20588;-48
2021/04/07 22:33:53;;;;;;;1.33;0.80;;;;;;;;;;5079434;28;20219;-48
2021/04/07 22:36:31;;;;;;;1.23;0.93;;;;;;;;;;5066468;28;20221;-48
2021/04/07 22:38:57;;;;;;;2.08;0.95;;;;;;;;;;5096746;28;20174;-48
2021/04/07 22:41:24;;;;;;;3.20;1.10;;;;;;;;;;5096122;28;20231;-48
2021/04/07 22:43:50;;;;;;;0.73;0.70;;;;;;;;;;5086471;28;20590;-48
2021/04/07 22:46:16;;;;;;;1.30;0.93;;;;;;;;;;5076061;28;20167;-48
2021/04/07 22:48:43;;;;;;;2.00;0.70;;;;;;;;;;5088652;28;20178;-48
2021/04/07 22:51:10;;;;;;;2.72;1.00;;;;;;;;;;5096014;28;20182;-50
2021/04/07 22:53:36;;;;;;;0.82;0.75;;;;;;;;;;5096370;28;20169;-48
2021/04/07 22:56:03;;;;;;;1.05;0.82;;;;;;;;;;5096182;28;20246;-48
2021/04/07 22:58:29;;;;;;;1.77;0.70;;;;;;;;;;5096283;28;20206;-48
2021/04/07 23:00:55;;;;;;;1.05;0.70;;;;;;;;;;5087754;28;20251;-49
2021/04/07 23:03:21;;;;;;;0.82;0.80;;;;;;;;;;5079301;28;20166;-48
2021/04/07 23:05:47;;;;;;;1.35;0.70;;;;;;;;;;5095786;28;20243;-48
2021/04/07 23:08:14;;;;;;;0.63;0.63;;;;;;;;;;5095664;28;20474;-48
2021/04/07 23:10:40;;;;;;;0.90;0.68;;;;;;;;;;5090434;28;20175;-48
2021/04/07 23:13:06;;;;;;;2.40;0.70;;;;;;;;;;5094379;28;20182;-48
2021/04/07 23:15:32;;;;;;;1.35;0.77;;;;;;;;;;5077962;28;20170;-48
2021/04/07 23:17:58;;;;;;;1.48;0.80;;;;;;;;;;5095975;28;20569;-49